createdAt,value
2024-02-24T00:01:24.583Z,5.90
2024-02-24T00:03:52.320Z,4.90
2024-02-24T00:06:20.477Z,5.50
2024-02-24T00:08:48.361Z,5.50
2024-02-24T00:11:17.072Z,7.70
2024-02-24T00:13:45.634Z,10.33
2024-02-24T00:16:16.132Z,7.00
2024-02-24T00:18:44.058Z,8.50
2024-02-24T00:21:11.861Z,5.60
2024-02-24T00:23:39.994Z,6.37
2024-02-24T00:26:07.818Z,9.00
2024-02-24T00:28:36.111Z,7.40
2024-02-24T00:31:03.822Z,12.87
2024-02-24T00:33:33.036Z,7.73
2024-02-24T00:36:01.804Z,7.80
2024-02-24T00:38:29.557Z,11.60
2024-02-24T00:40:58.333Z,9.23
2024-02-24T00:43:26.469Z,5.10
2024-02-24T00:45:54.251Z,5.20
2024-02-24T00:48:22.545Z,5.47
2024-02-24T00:50:53.356Z,11.67
2024-02-24T00:53:21.147Z,9.47
2024-02-24T00:55:48.956Z,5.00
2024-02-24T00:58:16.886Z,7.60
2024-02-24T01:00:44.647Z,8.70
2024-02-24T01:03:12.822Z,5.43
2024-02-24T01:05:43.447Z,6.10
2024-02-24T01:08:13.337Z,6.03
2024-02-24T01:10:42.675Z,6.40
2024-02-24T01:13:10.860Z,4.80
2024-02-24T01:15:38.722Z,6.57
2024-02-24T01:18:06.986Z,5.17
2024-02-24T01:20:35.285Z,5.90
2024-02-24T01:23:03.402Z,6.37
2024-02-24T01:25:32.958Z,5.60
2024-02-24T01:28:01.242Z,5.40
2024-02-24T01:30:28.923Z,5.07
2024-02-24T01:32:57.233Z,6.13
2024-02-24T01:35:25.522Z,5.50
2024-02-24T01:37:53.487Z,5.90
2024-02-24T01:40:21.683Z,4.30
2024-02-24T01:42:50.899Z,8.27
2024-02-24T01:45:19.266Z,5.00
2024-02-24T01:47:47.743Z,6.10
2024-02-24T01:50:15.814Z,7.73
2024-02-24T01:52:45.131Z,10.30
2024-02-24T01:55:14.307Z,6.90
2024-02-24T01:57:43.119Z,4.70
2024-02-24T02:00:13.218Z,5.97
2024-02-24T02:02:44.604Z,5.50
2024-02-24T02:05:14.471Z,6.00
2024-02-24T02:07:42.449Z,5.80
2024-02-24T02:10:10.958Z,7.93
2024-02-24T02:12:38.885Z,5.77
2024-02-24T02:15:07.604Z,4.83
2024-02-24T02:17:57.788Z,5.77
2024-02-24T02:20:26.202Z,5.70
2024-02-24T02:22:55.584Z,5.50
2024-02-24T02:25:23.891Z,5.30
2024-02-24T02:27:51.780Z,6.37
2024-02-24T02:30:19.606Z,4.40
2024-02-24T02:32:47.793Z,6.33
2024-02-24T02:35:15.775Z,6.80
2024-02-24T02:37:44.346Z,5.40
2024-02-24T02:40:14.294Z,5.50
2024-02-24T02:42:42.166Z,5.80
2024-02-24T02:45:09.992Z,4.60
2024-02-24T02:47:39.487Z,5.13
2024-02-24T02:50:08.344Z,4.60
2024-02-24T02:52:36.580Z,4.20
2024-02-24T02:55:04.651Z,5.97
2024-02-24T02:57:35.475Z,5.77
2024-02-24T03:00:05.788Z,7.57
2024-02-24T03:02:34.088Z,6.97
2024-02-24T03:05:01.878Z,5.93
2024-02-24T03:07:30.229Z,7.87
2024-02-24T03:09:58.463Z,5.90
2024-02-24T03:12:26.861Z,5.00
2024-02-24T03:14:56.319Z,5.50
2024-02-24T03:17:25.955Z,5.13
2024-02-24T03:19:53.820Z,4.67
2024-02-24T03:22:22.039Z,5.30
2024-02-24T03:24:49.792Z,4.80
2024-02-24T03:27:17.875Z,6.57
2024-02-24T03:32:43.354Z,4.60
2024-02-24T03:35:11.283Z,5.57
2024-02-24T03:38:01.581Z,5.33
2024-02-24T03:40:29.403Z,8.10
2024-02-24T03:42:57.372Z,4.93
2024-02-24T03:45:26.865Z,4.97
2024-02-24T03:47:54.706Z,4.63
2024-02-24T03:50:22.787Z,7.03
2024-02-24T03:52:51.581Z,6.03
2024-02-24T03:55:19.359Z,8.60
2024-02-24T03:57:47.136Z,5.07
2024-02-24T04:00:15.661Z,5.00
2024-02-24T04:02:45.071Z,6.20
2024-02-24T04:05:13.326Z,6.10
2024-02-24T04:07:41.334Z,6.13
2024-02-24T04:10:09.249Z,6.40
2024-02-24T04:12:37.049Z,6.13
2024-02-24T04:15:05.792Z,9.97
2024-02-24T04:17:33.595Z,7.87
2024-02-24T04:20:02.922Z,7.37
2024-02-24T04:22:31.009Z,6.80
2024-02-24T04:24:58.699Z,11.17
2024-02-24T04:27:26.623Z,10.37
2024-02-24T04:29:54.523Z,7.93
2024-02-24T04:32:22.381Z,9.30
2024-02-24T04:34:50.202Z,9.20
2024-02-24T04:37:19.687Z,8.40
2024-02-24T04:39:47.518Z,10.90
2024-02-24T04:42:15.612Z,6.00
2024-02-24T04:44:45.949Z,13.17
2024-02-24T04:47:14.010Z,8.43
2024-02-24T04:49:41.839Z,9.00
2024-02-24T04:52:09.844Z,8.00
2024-02-24T04:54:38.874Z,7.13
2024-02-24T04:57:06.878Z,6.37
2024-02-24T04:59:34.981Z,10.53
2024-02-24T05:02:03.341Z,8.97
2024-02-24T05:04:31.070Z,6.80
2024-02-24T05:06:59.186Z,13.93
2024-02-24T05:09:27.350Z,5.37
2024-02-24T05:11:56.562Z,9.10
2024-02-24T05:14:24.792Z,9.10
2024-02-24T05:16:52.637Z,10.53
2024-02-24T05:19:20.506Z,7.60
2024-02-24T05:21:48.791Z,8.60
2024-02-24T05:24:18.282Z,9.47
2024-02-24T05:26:46.287Z,6.80
2024-02-24T05:29:17.417Z,7.00
2024-02-24T05:31:45.376Z,7.77
2024-02-24T05:34:13.201Z,6.17
2024-02-24T05:36:42.279Z,6.10
2024-02-24T05:39:11.059Z,7.63
2024-02-24T05:41:38.982Z,10.17
2024-02-24T05:44:07.632Z,6.77
2024-02-24T05:46:36.861Z,7.60
2024-02-24T05:49:04.943Z,5.93
2024-02-24T05:51:33.736Z,9.20
2024-02-24T05:54:02.502Z,7.03
2024-02-24T05:56:30.302Z,11.90
2024-02-24T05:58:58.681Z,9.13
2024-02-24T06:01:26.377Z,6.37
2024-02-24T06:03:55.971Z,6.53
2024-02-24T06:06:24.247Z,8.07
2024-02-24T06:08:52.276Z,6.60
2024-02-24T06:11:21.285Z,9.87
2024-02-24T06:13:49.419Z,8.00
2024-02-24T06:16:17.211Z,9.90
2024-02-24T06:18:44.949Z,9.10
2024-02-24T06:21:15.408Z,8.43
2024-02-24T06:23:43.126Z,7.20
2024-02-24T06:26:11.292Z,7.70
2024-02-24T06:28:40.199Z,9.70
2024-02-24T06:31:08.083Z,14.70
2024-02-24T06:33:36.058Z,11.33
2024-02-24T06:36:04.662Z,7.63
2024-02-24T06:38:34.506Z,7.90
2024-02-24T06:41:02.477Z,7.73
2024-02-24T06:43:30.350Z,9.43
2024-02-24T06:45:59.681Z,8.10
2024-02-24T06:48:29.450Z,13.73
2024-02-24T06:50:57.570Z,10.50
2024-02-24T06:53:25.402Z,7.90
2024-02-24T06:55:54.547Z,8.80
2024-02-24T06:58:23.154Z,8.50
2024-02-24T07:00:50.912Z,7.83
2024-02-24T07:03:19.985Z,9.47
2024-02-24T07:05:48.026Z,7.90
2024-02-24T07:08:16.255Z,7.63
2024-02-24T07:10:44.142Z,6.70
2024-02-24T07:13:13.627Z,10.03
2024-02-24T07:15:41.360Z,6.50
2024-02-24T07:18:09.600Z,10.30
2024-02-24T07:20:37.826Z,8.17
2024-02-24T07:23:05.758Z,8.20
2024-02-24T07:25:33.522Z,9.77
2024-02-24T07:28:01.900Z,8.00
2024-02-24T07:30:31.012Z,6.43
2024-02-24T07:32:59.216Z,5.50
2024-02-24T07:35:27.906Z,6.83
2024-02-24T07:37:55.666Z,6.13
2024-02-24T07:40:23.382Z,6.10
2024-02-24T07:42:55.483Z,5.90
2024-02-24T07:45:26.377Z,9.20
2024-02-24T07:47:56.601Z,5.10
2024-02-24T07:50:24.762Z,5.43
2024-02-24T07:52:52.891Z,5.50
2024-02-24T07:55:20.783Z,7.70
2024-02-24T07:57:48.527Z,5.40
2024-02-24T08:00:17.066Z,5.70
2024-02-24T08:02:44.915Z,5.57
2024-02-24T08:05:14.159Z,5.10
2024-02-24T08:07:41.976Z,7.00
2024-02-24T08:10:11.767Z,5.20
2024-02-24T08:12:39.599Z,6.83
2024-02-24T08:15:07.876Z,4.43
2024-02-24T08:17:36.041Z,4.47
2024-02-24T08:20:04.002Z,10.80
2024-02-24T08:22:33.264Z,5.73
2024-02-24T08:25:02.277Z,7.20
2024-02-24T08:27:30.032Z,5.67
2024-02-24T08:29:57.982Z,4.97
2024-02-24T08:32:26.197Z,6.57
2024-02-24T08:34:54.141Z,5.00
2024-02-24T08:37:22.442Z,3.70
2024-02-24T08:39:52.285Z,7.50
2024-02-24T08:42:20.098Z,5.60
2024-02-24T08:44:47.861Z,7.40
2024-02-24T08:47:16.537Z,5.17
2024-02-24T08:49:44.352Z,3.80
2024-02-24T08:52:12.534Z,4.50
2024-02-24T08:54:40.291Z,4.00
2024-02-24T08:57:09.553Z,4.50
2024-02-24T08:59:37.472Z,4.30
2024-02-24T09:02:06.440Z,7.40
2024-02-24T09:04:34.152Z,4.33
2024-02-24T09:07:02.801Z,4.57
2024-02-24T09:09:31.006Z,4.20
2024-02-24T09:11:58.820Z,6.27
2024-02-24T09:14:28.334Z,4.73
2024-02-24T09:16:56.788Z,4.20
2024-02-24T09:19:26.919Z,5.53
2024-02-24T09:21:54.977Z,4.43
2024-02-24T09:24:22.894Z,4.33
2024-02-24T09:26:50.644Z,3.80
2024-02-24T09:29:20.139Z,4.80
2024-02-24T09:31:49.718Z,3.30
2024-02-24T09:34:18.200Z,11.73
2024-02-24T09:36:45.960Z,3.63
2024-02-24T09:39:15.296Z,4.10
2024-02-24T09:41:43.194Z,2.07
2024-02-24T09:44:11.044Z,2.87
2024-02-24T09:46:39.345Z,2.70
2024-02-24T09:49:09.002Z,2.10
2024-02-24T09:51:37.759Z,2.00
2024-02-24T09:54:05.481Z,2.10
2024-02-24T09:56:34.349Z,2.37
2024-02-24T09:59:02.365Z,2.43
2024-02-24T10:01:31.397Z,3.00
2024-02-24T10:03:59.458Z,2.40
2024-02-24T10:06:50.779Z,2.60
2024-02-24T10:09:18.652Z,2.37
2024-02-24T10:11:46.674Z,3.00
2024-02-24T10:17:01.481Z,2.70
2024-02-24T10:19:32.050Z,2.33
2024-02-24T10:22:02.951Z,2.90
2024-02-24T10:24:31.854Z,2.53
2024-02-24T10:27:01.168Z,3.23
2024-02-24T10:29:29.984Z,2.40
2024-02-24T10:31:58.479Z,2.20
2024-02-24T10:34:26.241Z,1.90
2024-02-24T10:36:54.989Z,2.73
2024-02-24T10:39:24.296Z,2.80
2024-02-24T10:41:53.932Z,2.57
2024-02-24T10:44:23.830Z,3.00
2024-02-24T10:46:52.249Z,2.50
2024-02-24T10:49:20.339Z,2.93
2024-02-24T10:51:51.038Z,3.40
2024-02-24T10:54:21.882Z,2.50
2024-02-24T10:56:57.660Z,2.60
2024-02-24T10:59:29.358Z,2.97
2024-02-24T11:02:00.615Z,2.00
2024-02-24T11:04:30.249Z,2.13
2024-02-24T11:06:58.647Z,2.13
2024-02-24T11:09:32.058Z,2.27
2024-02-24T11:12:13.725Z,2.40
2024-02-24T11:14:43.231Z,3.17
2024-02-24T11:17:11.542Z,3.00
2024-02-24T11:19:43.387Z,2.10
2024-02-24T11:22:13.737Z,2.23
2024-02-24T11:24:42.101Z,2.23
2024-02-24T11:27:10.201Z,2.70
2024-02-24T11:29:39.686Z,2.27
2024-02-24T11:32:08.861Z,2.27
2024-02-24T11:34:38.183Z,2.13
2024-02-24T11:37:06.636Z,2.80
2024-02-24T11:39:35.768Z,2.03
2024-02-24T11:42:03.864Z,4.73
2024-02-24T11:44:32.620Z,1.73
2024-02-24T11:47:02.232Z,1.53
2024-02-24T11:49:29.994Z,2.30
2024-02-24T11:51:57.742Z,1.37
2024-02-24T11:54:25.665Z,1.70
2024-02-24T11:56:53.586Z,2.63
2024-02-24T11:59:21.519Z,1.90
2024-02-24T12:01:49.810Z,2.73
2024-02-24T12:04:24.389Z,2.50
2024-02-24T12:06:53.634Z,2.53
2024-02-24T12:09:21.619Z,2.73
2024-02-24T12:11:50.149Z,2.07
2024-02-24T12:14:18.171Z,3.27
2024-02-24T12:16:46.191Z,2.37
2024-02-24T12:19:14.466Z,2.50
2024-02-24T12:21:49.574Z,2.13
2024-02-24T12:24:27.688Z,2.60
2024-02-24T12:26:56.171Z,2.43
2024-02-24T12:29:24.013Z,1.83
2024-02-24T12:31:52.368Z,2.10
2024-02-24T12:34:21.497Z,2.57
2024-02-24T12:36:56.902Z,2.47
2024-02-24T12:39:26.206Z,4.57
2024-02-24T12:41:54.531Z,4.63
2024-02-24T12:44:22.537Z,3.10
2024-02-24T12:46:50.616Z,22.03
2024-02-24T12:49:18.927Z,2.43
2024-02-24T12:51:52.177Z,3.67
2024-02-24T12:54:21.254Z,2.00
2024-02-24T12:56:49.513Z,1.93
2024-02-24T12:59:20.135Z,2.07
2024-02-24T13:01:48.270Z,1.70
2024-02-24T13:04:15.992Z,2.37
2024-02-24T13:06:44.519Z,2.30
2024-02-24T13:09:12.478Z,2.20
2024-02-24T13:11:42.024Z,1.90
2024-02-24T13:14:10.424Z,1.90
2024-02-24T13:16:53.935Z,1.80
2024-02-24T13:19:22.112Z,1.70
2024-02-24T13:21:49.997Z,1.57
2024-02-24T13:24:18.071Z,1.97
2024-02-24T13:26:48.549Z,1.80
2024-02-24T13:29:17.720Z,3.80
2024-02-24T13:31:45.633Z,2.77
2024-02-24T13:34:14.031Z,1.70
2024-02-24T13:36:41.860Z,2.00
2024-02-24T13:39:09.820Z,1.80
2024-02-24T13:41:38.191Z,2.70
2024-02-24T13:44:13.278Z,2.43
2024-02-24T13:46:42.492Z,1.73
2024-02-24T13:49:12.821Z,3.27
2024-02-24T13:51:42.428Z,2.40
2024-02-24T13:54:10.314Z,1.87
2024-02-24T13:56:38.086Z,1.73
2024-02-24T13:59:08.339Z,2.03
2024-02-24T14:01:36.731Z,1.33
2024-02-24T14:04:04.539Z,2.20
2024-02-24T14:06:32.898Z,1.70
2024-02-24T14:09:07.019Z,1.87
2024-02-24T14:11:35.552Z,1.50
2024-02-24T14:14:04.661Z,1.30
2024-02-24T14:16:34.567Z,1.33
2024-02-24T14:19:04.872Z,1.20
2024-02-24T14:21:32.897Z,1.60
2024-02-24T14:24:01.580Z,1.63
2024-02-24T14:26:30.446Z,1.80
2024-02-24T14:29:01.334Z,1.57
2024-02-24T14:31:31.660Z,1.30
2024-02-24T14:34:01.672Z,2.10
2024-02-24T14:36:29.975Z,1.70
2024-02-24T14:38:58.585Z,1.87
2024-02-24T14:41:26.488Z,2.10
2024-02-24T14:43:54.464Z,1.50
2024-02-24T14:46:22.697Z,1.67
2024-02-24T14:48:51.847Z,2.03
2024-02-24T14:51:21.405Z,1.67
2024-02-24T14:53:52.682Z,2.00
2024-02-24T14:56:20.774Z,1.70
2024-02-24T14:58:48.594Z,0.97
2024-02-24T15:01:16.967Z,1.20
2024-02-24T15:03:47.809Z,1.83
2024-02-24T15:06:16.891Z,1.20
2024-02-24T15:08:46.141Z,1.40
2024-02-24T15:11:15.484Z,1.40
2024-02-24T15:13:43.404Z,2.10
2024-02-24T15:16:12.609Z,1.93
2024-02-24T15:18:40.462Z,1.83
2024-02-24T15:21:09.181Z,1.10
2024-02-24T15:23:37.206Z,2.03
2024-02-24T15:26:06.831Z,1.37
2024-02-24T15:28:34.978Z,2.27
2024-02-24T15:31:04.548Z,1.50
2024-02-24T15:33:32.563Z,1.57
2024-02-24T15:36:07.820Z,4.43
2024-02-24T15:38:37.249Z,1.67
2024-02-24T15:41:06.579Z,2.00
2024-02-24T15:43:34.231Z,2.40
2024-02-24T15:46:02.056Z,2.00
2024-02-24T15:48:30.305Z,2.47
2024-02-24T15:50:58.233Z,2.50
2024-02-24T15:53:26.428Z,2.37
2024-02-24T15:55:58.697Z,3.00
2024-02-24T15:58:28.070Z,3.00
2024-02-24T16:00:55.918Z,2.40
2024-02-24T16:03:23.884Z,2.90
2024-02-24T16:05:53.062Z,2.60
2024-02-24T16:08:21.662Z,2.57
2024-02-24T16:10:50.242Z,2.80
2024-02-24T16:13:18.313Z,4.00
2024-02-24T16:15:47.787Z,3.47
2024-02-24T16:18:16.636Z,1.60
2024-02-24T16:20:44.972Z,2.73
2024-02-24T16:23:13.896Z,2.67
2024-02-24T16:25:41.908Z,4.70
2024-02-24T16:28:09.753Z,5.80
2024-02-24T16:30:36.442Z,2.90
2024-02-24T16:33:06.793Z,2.90
2024-02-24T16:35:34.677Z,2.97
2024-02-24T16:38:02.782Z,4.10
2024-02-24T16:40:31.717Z,3.10
2024-02-24T16:43:00.891Z,3.30
2024-02-24T16:45:28.831Z,2.23
2024-02-24T16:47:57.396Z,5.00
2024-02-24T16:50:26.779Z,5.73
2024-02-24T16:52:54.928Z,4.60
2024-02-24T16:55:25.277Z,2.63
2024-02-24T16:57:53.082Z,3.97
2024-02-24T17:00:21.593Z,6.00
2024-02-24T17:02:51.728Z,2.80
2024-02-24T17:05:20.082Z,4.30
2024-02-24T17:07:49.419Z,3.90
2024-02-24T17:10:20.395Z,3.17
2024-02-24T17:12:48.817Z,10.80
2024-02-24T17:15:16.862Z,4.07
2024-02-24T17:17:44.764Z,3.03
2024-02-24T17:20:12.867Z,3.83
2024-02-24T17:22:40.794Z,2.90
2024-02-24T17:25:11.816Z,3.70
2024-02-24T17:27:40.231Z,2.60
2024-02-24T17:30:08.870Z,2.27
2024-02-24T17:32:37.019Z,2.90
2024-02-24T17:35:05.635Z,2.17
2024-02-24T17:37:34.330Z,2.27
2024-02-24T17:40:02.246Z,1.87
2024-02-24T17:42:31.431Z,2.90
2024-02-24T17:44:59.644Z,2.73
2024-02-24T17:47:27.702Z,1.90
2024-02-24T17:49:55.819Z,1.83
2024-02-24T17:52:24.563Z,4.00
2024-02-24T17:54:53.145Z,3.00
2024-02-24T17:57:20.928Z,1.60
2024-02-24T17:59:49.975Z,1.93
2024-02-24T18:02:18.212Z,1.43
2024-02-24T18:04:46.087Z,19.60
2024-02-24T18:07:14.175Z,1.30
2024-02-24T18:09:42.840Z,1.57
2024-02-24T18:12:10.617Z,1.30
2024-02-24T18:14:40.416Z,1.30
2024-02-24T18:17:10.636Z,1.77
2024-02-24T18:19:38.786Z,1.60
2024-02-24T18:22:06.533Z,1.80
2024-02-24T18:24:34.925Z,1.77
2024-02-24T18:27:03.171Z,1.93
2024-02-24T18:29:32.308Z,1.37
2024-02-24T18:32:00.285Z,1.30
2024-02-24T18:34:29.595Z,1.00
2024-02-24T18:36:57.583Z,1.30
2024-02-24T18:39:26.468Z,2.07
2024-02-24T18:41:54.224Z,1.00
2024-02-24T18:44:22.181Z,1.47
2024-02-24T18:46:50.805Z,1.47
2024-02-24T18:49:18.896Z,1.40
2024-02-24T18:51:48.070Z,1.80
2024-02-24T18:54:16.550Z,1.60
2024-02-24T18:56:44.324Z,1.50
2024-02-24T18:59:12.138Z,2.37
2024-02-24T19:01:40.033Z,2.30
2024-02-24T19:04:07.906Z,3.30
2024-02-24T19:06:35.626Z,2.53
2024-02-24T19:09:05.545Z,2.60
2024-02-24T19:11:34.739Z,4.13
2024-02-24T19:14:02.548Z,3.80
2024-02-24T19:16:32.059Z,4.10
2024-02-24T19:18:59.918Z,7.33
2024-02-24T19:21:28.388Z,8.70
2024-02-24T19:23:56.353Z,5.30
2024-02-24T19:26:25.557Z,4.90
2024-02-24T19:28:53.327Z,3.10
2024-02-24T19:31:21.887Z,5.10
2024-02-24T19:33:49.831Z,3.97
2024-02-24T19:36:18.149Z,3.10
2024-02-24T19:38:46.138Z,3.43
2024-02-24T19:41:14.754Z,16.60
2024-02-24T19:43:43.893Z,4.87
2024-02-24T19:46:12.245Z,5.03
2024-02-24T19:48:40.135Z,6.77
2024-02-24T19:51:13.880Z,9.50
2024-02-24T19:53:41.906Z,6.63
2024-02-24T19:56:09.949Z,6.90
2024-02-24T19:58:45.120Z,3.80
2024-02-24T20:01:22.127Z,3.97
2024-02-24T20:03:50.497Z,10.87
2024-02-24T20:06:18.593Z,4.10
2024-02-24T20:08:47.140Z,4.10
2024-02-24T20:11:15.055Z,5.77
2024-02-24T20:13:42.861Z,4.37
2024-02-24T20:16:10.753Z,5.90
2024-02-24T20:18:41.229Z,6.90
2024-02-24T20:21:09.016Z,8.27
2024-02-24T20:23:36.740Z,7.63
2024-02-24T20:26:05.026Z,9.27
2024-02-24T20:28:32.640Z,12.73
2024-02-24T20:31:00.499Z,8.33
2024-02-24T20:33:28.621Z,6.73
2024-02-24T20:35:58.144Z,5.40
2024-02-24T20:38:27.161Z,5.80
2024-02-24T20:40:55.786Z,5.50
2024-02-24T20:43:23.626Z,4.37
2024-02-24T20:45:52.998Z,4.50
2024-02-24T20:48:21.579Z,5.13
2024-02-24T20:50:50.809Z,5.17
2024-02-24T20:53:21.633Z,4.53
2024-02-24T20:55:49.373Z,4.40
2024-02-24T20:58:17.611Z,3.93
2024-02-24T21:00:45.870Z,4.90
2024-02-24T21:03:13.876Z,5.03
2024-02-24T21:05:41.713Z,5.33
2024-02-24T21:08:10.308Z,5.20
2024-02-24T21:10:39.321Z,7.23
2024-02-24T21:13:07.139Z,5.37
2024-02-24T21:15:35.419Z,4.10
2024-02-24T21:18:03.158Z,4.50
2024-02-24T21:20:31.050Z,5.13
2024-02-24T21:23:00.578Z,4.97
2024-02-24T21:25:30.361Z,4.60
2024-02-24T21:27:59.977Z,4.30
2024-02-24T21:30:28.061Z,4.77
2024-02-24T21:32:55.813Z,5.57
2024-02-24T21:38:20.340Z,4.40
2024-02-24T21:40:48.760Z,5.07
2024-02-24T21:43:18.830Z,4.77
2024-02-24T21:45:47.156Z,4.90
2024-02-24T21:48:17.029Z,4.70
2024-02-24T21:50:45.217Z,4.73
2024-02-24T21:53:12.928Z,5.07
2024-02-24T21:55:41.351Z,4.70
2024-02-24T21:58:08.997Z,5.33
2024-02-24T22:00:39.756Z,5.43
2024-02-24T22:03:08.113Z,4.93
2024-02-24T22:05:36.081Z,5.33
2024-02-24T22:08:04.398Z,4.60
2024-02-24T22:10:32.247Z,5.23
2024-02-24T22:13:00.786Z,4.00
2024-02-24T22:15:28.628Z,4.80
2024-02-24T22:17:58.526Z,4.80
2024-02-24T22:20:26.790Z,7.23
2024-02-24T22:22:54.607Z,6.17
2024-02-24T22:25:22.933Z,5.57
2024-02-24T22:27:50.747Z,4.00
2024-02-24T22:30:19.044Z,3.83
2024-02-24T22:32:47.251Z,3.37
2024-02-24T22:35:16.595Z,4.83
2024-02-24T22:37:44.775Z,4.30
2024-02-24T22:40:13.495Z,5.70
2024-02-24T22:42:42.261Z,5.17
2024-02-24T22:45:10.523Z,4.70
2024-02-24T22:47:38.778Z,5.80
2024-02-24T22:50:07.182Z,6.13
2024-02-24T22:52:36.282Z,5.53
2024-02-24T22:55:06.598Z,5.77
2024-02-24T22:57:34.415Z,4.80
2024-02-24T23:00:02.205Z,4.90
2024-02-24T23:02:30.688Z,4.63
2024-02-24T23:04:58.448Z,4.47
2024-02-24T23:07:26.956Z,4.70
2024-02-24T23:09:56.202Z,3.70
2024-02-24T23:12:24.047Z,3.70
2024-02-24T23:14:52.719Z,3.43
2024-02-24T23:17:21.117Z,4.33
2024-02-24T23:19:48.894Z,3.63
2024-02-24T23:22:16.879Z,3.60
2024-02-24T23:24:45.011Z,3.70
2024-02-24T23:27:14.205Z,3.77
2024-02-24T23:29:42.026Z,3.90
2024-02-24T23:32:10.168Z,3.60
2024-02-24T23:34:37.848Z,4.57
2024-02-24T23:37:06.036Z,3.87
2024-02-24T23:39:34.114Z,3.57
2024-02-24T23:42:02.057Z,3.80
2024-02-24T23:44:31.156Z,3.70
2024-02-24T23:46:59.356Z,3.40
2024-02-24T23:49:27.177Z,2.93
2024-02-24T23:51:54.937Z,3.20
2024-02-24T23:54:22.622Z,3.30
2024-02-24T23:56:50.480Z,5.00
2024-02-24T23:59:18.965Z,3.57
